Time;durP1;ratioP1;P1;durP2;ratioP2;P2;SDS_P1;SDS_P2;PMS_P1;PMS_P2;Temp;Humidity;BMP_temperature;BMP_pressure;BME280_temperature;BME280_humidity;BME280_pressure;Samples;Min_cycle;Max_cycle;Signal;HPM_P1;HPM_P2
2024/04/16 00:00:55;;;;;;;9.25;2.70;;;;;;;17.88;100.00;99161.09;5484879;26;19998;-54
2024/04/16 00:03:30;;;;;;;7.78;2.58;;;;;;;17.91;100.00;99166.13;5484623;26;20014;-51
2024/04/16 00:05:58;;;;;;;9.93;2.80;;;;;;;17.80;100.00;99158.38;5484820;26;19997;-52
2024/04/16 00:08:29;;;;;;;8.35;2.78;;;;;;;17.78;100.00;99150.44;5484690;26;19994;-53
2024/04/16 00:10:59;;;;;;;8.40;2.60;;;;;;;17.88;100.00;99144.91;5484663;26;20006;-55
2024/04/16 00:13:29;;;;;;;6.72;2.45;;;;;;;17.74;100.00;99147.22;5484527;26;20026;-53
2024/04/16 00:15:58;;;;;;;7.60;2.65;;;;;;;17.64;100.00;99142.94;5484597;26;20009;-50
2024/04/16 00:18:31;;;;;;;9.60;2.72;;;;;;;17.48;100.00;99143.75;5484136;26;20002;-51
2024/04/16 00:20:59;;;;;;;8.25;2.58;;;;;;;17.30;100.00;99145.69;5484593;26;20605;-52
2024/04/16 00:23:30;;;;;;;7.35;2.35;;;;;;;17.48;100.00;99137.53;5484285;26;20009;-52
2024/04/16 00:25:58;;;;;;;4.55;2.03;;;;;;;17.48;100.00;99138.34;5484323;26;19994;-50
2024/04/16 00:28:28;;;;;;;4.65;2.13;;;;;;;17.41;100.00;99126.53;5484438;26;20066;-53
2024/04/16 00:30:57;;;;;;;5.10;2.00;;;;;;;17.53;100.00;99125.22;5484367;26;19994;-54
2024/04/16 00:33:27;;;;;;;6.68;2.30;;;;;;;17.37;100.00;99115.25;5486956;26;20327;-50
2024/04/16 00:35:58;;;;;;;6.60;2.10;;;;;;;17.35;100.00;99113.69;5488203;26;19998;-52
2024/04/16 00:38:28;;;;;;;4.45;2.00;;;;;;;17.24;100.00;99114.84;5487939;26;20008;-52
2024/04/16 00:40:55;;;;;;;5.50;1.90;;;;;;;17.24;100.00;99109.44;5488084;26;20006;-54
2024/04/16 00:43:26;;;;;;;5.53;2.00;;;;;;;17.15;100.00;99108.56;5488128;26;20390;-54
2024/04/16 00:45:55;;;;;;;6.78;2.47;;;;;;;17.17;100.00;99111.09;5488061;26;20141;-50
2024/04/16 00:48:26;;;;;;;4.82;2.10;;;;;;;17.16;100.00;99112.09;5487836;26;20331;-55
2024/04/16 00:50:55;;;;;;;5.18;2.50;;;;;;;17.36;100.00;99120.78;5487964;26;20038;-52
2024/04/16 00:53:31;;;;;;;4.53;2.03;;;;;;;17.28;100.00;99116.22;5487783;26;20002;-53
2024/04/16 00:55:59;;;;;;;6.63;1.95;;;;;;;17.29;100.00;99117.91;5487589;26;20043;-54
2024/04/16 00:58:32;;;;;;;4.03;1.83;;;;;;;17.28;100.00;99126.16;5487397;26;19995;-52
2024/04/16 01:00:59;;;;;;;6.28;2.20;;;;;;;17.09;100.00;99144.25;5487903;26;20002;-54
2024/04/16 01:03:30;;;;;;;4.60;2.05;;;;;;;17.13;100.00;99131.28;5487339;26;20034;-50
2024/04/16 01:05:59;;;;;;;4.13;1.95;;;;;;;17.06;100.00;99116.78;5487715;26;20005;-52
2024/04/16 01:08:32;;;;;;;3.55;1.75;;;;;;;17.16;100.00;99112.94;5487331;26;20005;-52
2024/04/16 01:11:00;;;;;;;5.13;1.92;;;;;;;17.13;100.00;99112.44;5487292;26;20002;-52
2024/04/16 01:13:30;;;;;;;4.18;1.80;;;;;;;17.16;100.00;99109.41;5487337;26;20470;-52
2024/04/16 01:15:58;;;;;;;3.78;2.17;;;;;;;17.15;100.00;99105.88;5487115;26;20058;-51
2024/04/16 01:18:28;;;;;;;6.10;2.10;;;;;;;17.17;100.00;99114.63;5487281;26;20010;-52
2024/04/16 01:20:56;;;;;;;4.65;2.33;;;;;;;17.17;100.00;99113.78;5487168;26;20010;-50
2024/04/16 01:23:29;;;;;;;3.95;1.85;;;;;;;17.20;100.00;99107.25;5487367;26;20443;-52
2024/04/16 01:25:56;;;;;;;4.18;1.90;;;;;;;17.25;100.00;99115.69;5487193;26;20508;-59
2024/04/16 01:28:27;;;;;;;6.32;2.30;;;;;;;17.09;100.00;99116.47;5487237;26;19994;-52
2024/04/16 01:30:55;;;;;;;4.75;2.00;;;;;;;17.12;100.00;99111.59;5487226;26;20038;-50
2024/04/16 01:33:25;;;;;;;3.53;1.65;;;;;;;16.97;100.00;99113.19;5486986;26;20003;-54
2024/04/16 01:35:53;;;;;;;3.85;1.50;;;;;;;17.05;100.00;99105.16;5487197;26;20299;-51
2024/04/16 01:38:24;;;;;;;5.18;1.80;;;;;;;17.06;100.00;99106.84;5486945;26;19998;-55
2024/04/16 01:40:54;;;;;;;5.25;1.52;;;;;;;16.92;100.00;99099.38;5487091;26;20005;-53
2024/04/16 01:43:24;;;;;;;3.35;1.70;;;;;;;16.52;100.00;99108.03;5486554;26;20123;-54
2024/04/16 01:45:52;;;;;;;3.47;1.40;;;;;;;16.81;100.00;99113.13;5486982;26;20009;-52
2024/04/16 01:48:22;;;;;;;2.65;1.50;;;;;;;16.63;100.00;99110.44;5487288;26;20269;-54
2024/04/16 01:50:50;;;;;;;3.70;1.63;;;;;;;16.81;100.00;99111.28;5487785;26;19998;-54
2024/04/16 01:53:21;;;;;;;3.92;1.80;;;;;;;16.86;100.00;99105.38;5486985;26;20030;-50
2024/04/16 01:55:49;;;;;;;3.67;1.52;;;;;;;16.97;100.00;99099.72;5486795;26;20463;-52
2024/04/16 01:58:21;;;;;;;5.45;1.63;;;;;;;16.98;100.00;99090.63;5486747;26;20459;-52
2024/04/16 02:00:49;;;;;;;3.60;1.48;;;;;;;16.98;100.00;99090.63;5486674;26;20089;-54
2024/04/16 02:03:19;;;;;;;3.63;2.13;;;;;;;16.98;100.00;99085.25;5486517;26;20002;-52
2024/04/16 02:05:47;;;;;;;3.13;1.83;;;;;;;17.06;100.00;99074.50;5486488;26;19998;-54
2024/04/16 02:08:17;;;;;;;6.55;1.85;;;;;;;17.08;100.00;99072.53;5487198;25;19998;-53
2024/04/16 02:10:51;;;;;;;3.42;1.80;;;;;;;17.19;100.00;99070.53;5487990;26;19998;-54
2024/04/16 02:13:24;;;;;;;7.03;1.75;;;;;;;17.21;100.00;99071.22;5487321;26;20069;-53
2024/04/16 02:15:52;;;;;;;4.38;1.90;;;;;;;17.02;100.00;99066.94;5486507;26;19998;-52
2024/04/16 02:18:23;;;;;;;5.43;1.65;;;;;;;16.97;100.00;99056.63;5486608;26;19994;-55
2024/04/16 02:20:50;;;;;;;3.90;1.80;;;;;;;16.95;100.00;99055.09;5486709;26;20027;-54
2024/04/16 02:23:20;;;;;;;3.85;1.73;;;;;;;16.95;100.00;99050.56;5486442;26;20316;-51
2024/04/16 02:25:49;;;;;;;3.85;1.70;;;;;;;17.02;100.00;99057.00;5486241;26;19994;-56
2024/04/16 02:28:19;;;;;;;3.38;1.60;;;;;;;17.06;100.00;99058.34;5486430;26;20002;-50
2024/04/16 02:30:49;;;;;;;5.00;1.90;;;;;;;17.02;100.00;99062.38;5485937;26;19994;-53
2024/04/16 02:33:22;;;;;;;6.28;1.80;;;;;;;16.96;100.00;99060.31;5486467;26;19998;-55
2024/04/16 02:35:49;;;;;;;5.53;1.90;;;;;;;16.87;100.00;99062.13;5486209;26;19998;-56
2024/04/16 02:38:20;;;;;;;6.13;2.00;;;;;;;16.90;100.00;99066.38;5485813;26;20287;-51
2024/04/16 02:40:47;;;;;;;5.70;1.92;;;;;;;16.95;100.00;99071.25;5486078;26;20415;-51
2024/04/16 02:43:18;;;;;;;3.33;1.83;;;;;;;16.93;100.00;99068.75;5486070;26;20043;-50
2024/04/16 02:45:50;;;;;;;4.28;1.65;;;;;;;16.84;100.00;99072.41;5485843;26;19998;-51
2024/04/16 02:48:20;;;;;;;5.07;1.77;;;;;;;16.88;100.00;99071.06;5485969;26;19990;-54
2024/04/16 02:50:51;;;;;;;3.00;1.50;;;;;;;16.76;100.00;99067.81;5485953;26;19998;-53
2024/04/16 02:53:21;;;;;;;3.28;1.40;;;;;;;16.93;100.00;99068.75;5485795;26;20506;-55
2024/04/16 02:55:49;;;;;;;3.25;1.50;;;;;;;16.98;100.00;99070.94;5484936;26;19997;-54
2024/04/16 02:58:21;;;;;;;2.55;1.50;;;;;;;16.90;100.00;99071.75;5485704;26;20005;-50
2024/04/16 03:00:51;;;;;;;3.83;1.60;;;;;;;16.82;100.00;99069.03;5485925;26;19997;-53
2024/04/16 03:03:22;;;;;;;3.45;1.50;;;;;;;16.79;100.00;99063.94;5485751;26;20113;-52
2024/04/16 03:05:54;;;;;;;2.97;1.50;;;;;;;16.73;100.00;99061.91;5485393;26;20033;-51
2024/04/16 03:08:25;;;;;;;4.32;1.50;;;;;;;16.67;100.00;99057.97;5485557;26;20022;-50
2024/04/16 03:10:56;;;;;;;4.30;1.60;;;;;;;16.38;100.00;99052.91;5485450;26;20005;-52
2024/04/16 03:13:26;;;;;;;4.45;1.58;;;;;;;16.30;100.00;99044.78;5485549;26;20070;-51
2024/04/16 03:15:57;;;;;;;4.85;1.67;;;;;;;16.28;100.00;99041.41;5485157;26;20009;-50
2024/04/16 03:18:27;;;;;;;3.33;1.73;;;;;;;16.41;100.00;99047.22;5485606;26;20025;-52
2024/04/16 03:20:59;;;;;;;4.05;1.80;;;;;;;16.49;100.00;99049.09;5485190;26;19994;-51
2024/04/16 03:23:30;;;;;;;4.07;1.93;;;;;;;16.40;100.00;99042.81;5485309;26;20483;-51
2024/04/16 03:26:02;;;;;;;5.60;1.92;;;;;;;16.34;100.00;99056.94;5485084;26;19994;-49
2024/04/16 03:28:32;;;;;;;4.85;1.80;;;;;;;16.34;100.00;99046.16;5485298;26;20030;-53
2024/04/16 03:31:03;;;;;;;3.25;1.65;;;;;;;16.36;100.00;99044.16;5485259;26;20034;-50
2024/04/16 03:33:34;;;;;;;4.10;2.00;;;;;;;16.26;100.00;99049.63;5485340;26;20018;-50
2024/04/16 03:36:02;;;;;;;4.82;1.90;;;;;;;16.22;100.00;99050.13;5485373;26;20002;-51
2024/04/16 03:38:33;;;;;;;3.65;1.75;;;;;;;16.32;100.00;99053.56;5485514;26;20033;-53
2024/04/16 03:41:04;;;;;;;6.18;2.00;;;;;;;16.13;100.00;99054.59;5485478;26;20436;-49
2024/04/16 03:43:35;;;;;;;5.65;1.80;;;;;;;16.23;100.00;99067.97;5485142;26;20001;-50
2024/04/16 03:46:05;;;;;;;3.70;1.85;;;;;;;16.24;100.00;99066.94;5485108;26;20027;-50
2024/04/16 03:48:36;;;;;;;4.30;1.92;;;;;;;16.19;100.00;99062.03;5485001;26;19998;-52
2024/04/16 03:51:04;;;;;;;3.50;1.55;;;;;;;16.09;100.00;99063.97;5484988;26;20547;-49
2024/04/16 03:53:34;;;;;;;6.22;2.15;;;;;;;15.92;100.00;99052.25;5484725;26;20426;-49
2024/04/16 03:56:04;;;;;;;9.15;2.08;;;;;;;15.79;100.00;99056.31;5484783;26;19998;-49
2024/04/16 03:58:43;;;;;;;3.50;1.70;;;;;;;15.91;100.00;99060.44;5484752;26;20120;-49
2024/04/16 04:01:14;;;;;;;3.90;1.83;;;;;;;15.78;100.00;99065.38;5484671;26;20002;-51
2024/04/16 04:03:44;;;;;;;7.80;2.30;;;;;;;15.83;100.00;99069.31;5484598;26;19998;-50
2024/04/16 04:06:13;;;;;;;5.47;1.80;;;;;;;15.74;100.00;99067.56;5484981;26;19998;-50
2024/04/16 04:08:43;;;;;;;5.40;1.92;;;;;;;15.70;100.00;99074.22;5487935;26;20300;-49
2024/04/16 04:11:11;;;;;;;4.50;1.90;;;;;;;15.89;100.00;99086.66;5488111;26;19994;-51
2024/04/16 04:13:41;;;;;;;5.40;2.08;;;;;;;15.74;100.00;99081.84;5487937;26;20367;-51
2024/04/16 04:16:12;;;;;;;5.97;2.25;;;;;;;15.55;100.00;99087.31;5487778;26;20006;-53
2024/04/16 04:18:44;;;;;;;4.82;2.22;;;;;;;15.58;100.00;99096.91;5487806;26;20067;-51
2024/04/16 04:21:14;;;;;;;6.15;2.08;;;;;;;15.42;100.00;99090.34;5487616;26;20109;-56
2024/04/16 04:23:41;;;;;;;4.13;1.98;;;;;;;15.25;100.00;99096.56;5487793;26;19998;-51
2024/04/16 04:26:11;;;;;;;5.78;2.60;;;;;;;15.01;100.00;99098.94;5487699;26;20390;-55
2024/04/16 04:28:39;;;;;;;6.55;2.70;;;;;;;14.92;100.00;99097.97;5487615;26;20009;-51
2024/04/16 04:31:16;;;;;;;5.90;2.55;;;;;;;14.98;100.00;99101.91;5487475;26;19998;-56
2024/04/16 04:33:47;;;;;;;6.40;2.25;;;;;;;14.83;100.00;99106.91;5487443;26;19998;-56
2024/04/16 04:36:17;;;;;;;5.30;2.17;;;;;;;15.09;100.00;99104.41;5487661;26;19998;-54
2024/04/16 04:38:44;;;;;;;8.15;2.10;;;;;;;15.03;100.00;99110.38;5487647;26;19998;-55
2024/04/16 04:41:15;;;;;;;3.85;1.90;;;;;;;15.30;100.00;99105.00;5487984;26;19998;-55
2024/04/16 04:43:42;;;;;;;5.72;2.30;;;;;;;15.03;100.00;99105.00;5487863;26;20071;-52
2024/04/16 04:46:13;;;;;;;7.00;2.40;;;;;;;14.70;100.00;99096.50;5487936;26;20040;-54
2024/04/16 04:48:43;;;;;;;5.15;2.20;;;;;;;14.84;100.00;99098.72;5487868;26;20009;-56
2024/04/16 04:51:14;;;;;;;5.20;2.40;;;;;;;14.86;100.00;99090.50;5487844;26;20340;-56
2024/04/16 04:53:44;;;;;;;4.75;2.50;;;;;;;14.93;100.00;99080.88;5487719;26;20295;-56
2024/04/16 04:56:12;;;;;;;6.93;2.60;;;;;;;15.05;100.00;99077.00;5487799;26;20022;-57
2024/04/16 04:58:42;;;;;;;7.22;2.60;;;;;;;15.04;100.00;99085.19;5488334;26;20077;-54
2024/04/16 05:01:10;;;;;;;4.15;2.30;;;;;;;15.00;100.00;99091.88;5487780;26;19994;-55
2024/04/16 05:03:41;;;;;;;5.13;2.92;;;;;;;14.86;100.00;99104.81;5487804;26;20042;-52
2024/04/16 05:06:08;;;;;;;6.97;3.08;;;;;;;15.02;100.00;99106.84;5487729;26;20009;-55
2024/04/16 05:08:41;;;;;;;6.47;3.67;;;;;;;15.22;100.00;99107.59;5487731;26;20060;-56
2024/04/16 05:11:08;;;;;;;12.13;4.65;;;;;;;15.10;100.00;99117.69;5488008;26;20466;-58
2024/04/16 05:13:40;;;;;;;7.88;3.50;;;;;;;14.81;100.00;99130.38;5487778;26;19991;-52
2024/04/16 05:16:08;;;;;;;5.70;2.42;;;;;;;14.59;100.00;99118.16;5487920;26;20013;-58
2024/04/16 05:18:38;;;;;;;4.25;2.10;;;;;;;14.47;100.00;99111.25;5486332;26;19998;-58
2024/04/16 05:21:06;;;;;;;4.20;2.00;;;;;;;14.43;100.00;99118.72;5487742;26;20005;-59
2024/04/16 05:23:36;;;;;;;6.43;2.42;;;;;;;14.70;100.00;99109.94;5487591;26;19998;-57
2024/04/16 05:26:07;;;;;;;4.60;1.60;;;;;;;14.35;100.00;99109.69;5487476;26;20009;-58
2024/04/16 05:28:37;;;;;;;2.38;1.50;;;;;;;14.49;100.00;99104.78;5487577;26;20009;-59
2024/04/16 05:31:05;;;;;;;4.75;1.23;;;;;;;14.27;100.00;99115.78;5488161;26;20657;-58
2024/04/16 05:33:36;;;;;;;3.00;1.40;;;;;;;14.08;100.00;99130.03;5487583;26;19997;-58
2024/04/16 05:36:04;;;;;;;4.28;1.17;;;;;;;14.05;100.00;99127.66;5487780;26;20428;-59
2024/04/16 05:38:36;;;;;;;4.30;1.88;;;;;;;14.20;100.00;99125.41;5487817;26;20033;-55
2024/04/16 05:41:06;;;;;;;2.03;1.15;;;;;;;14.01;100.00;99131.63;5487797;26;20006;-59
2024/04/16 05:43:37;;;;;;;2.28;1.10;;;;;;;13.96;100.00;99125.81;5487518;26;20002;-58
2024/04/16 05:46:08;;;;;;;2.95;1.30;;;;;;;14.25;100.00;99118.59;5487204;26;20062;-58
2024/04/16 05:48:38;;;;;;;3.15;1.50;;;;;;;14.08;100.00;99122.00;5487315;26;20009;-57
2024/04/16 05:51:05;;;;;;;2.42;1.40;;;;;;;14.10;100.00;99135.28;5487471;26;20074;-59
2024/04/16 05:53:35;;;;;;;5.38;1.40;;;;;;;14.04;100.00;99139.38;5487009;26;19998;-56
2024/04/16 05:56:06;;;;;;;3.50;1.30;;;;;;;13.79;100.00;99153.31;5487211;26;20002;-57
2024/04/16 05:58:36;;;;;;;5.18;1.30;;;;;;;13.74;100.00;99146.53;5487215;26;19998;-60
2024/04/16 06:01:05;;;;;;;3.53;1.10;;;;;;;13.70;100.00;99145.13;5487097;26;19994;-57
2024/04/16 06:03:36;;;;;;;2.05;1.00;;;;;;;13.64;100.00;99145.69;5487256;26;19998;-58
2024/04/16 06:06:04;;;;;;;3.92;1.20;;;;;;;13.55;100.00;99143.84;5487824;26;20005;-58
2024/04/16 06:08:34;;;;;;;5.95;1.23;;;;;;;13.39;100.00;99136.31;5487471;26;19998;-57
2024/04/16 06:11:01;;;;;;;2.45;1.00;;;;;;;13.52;100.00;99137.91;5487347;26;19998;-56
2024/04/16 06:13:34;;;;;;;4.13;1.42;;;;;;;13.72;100.00;99127.09;5487389;26;20029;-56
2024/04/16 06:16:06;;;;;;;4.50;1.60;;;;;;;13.58;100.00;99134.66;5486907;26;20009;-57
2024/04/16 06:18:37;;;;;;;3.30;1.60;;;;;;;13.58;100.00;99142.69;5486825;26;20002;-56
2024/04/16 06:21:05;;;;;;;2.83;1.48;;;;;;;13.39;100.00;99144.34;5486941;26;20034;-56
2024/04/16 06:23:35;;;;;;;4.20;1.65;;;;;;;13.32;100.00;99137.03;5487295;26;20030;-59
2024/04/16 06:26:06;;;;;;;6.28;1.60;;;;;;;13.28;100.00;99136.44;5486380;26;19998;-59
2024/04/16 06:28:40;;;;;;;6.35;1.70;;;;;;;13.36;100.00;99141.09;5486477;26;20070;-57
2024/04/16 06:31:07;;;;;;;6.05;2.05;;;;;;;13.37;100.00;99137.44;5485181;26;20038;-54
2024/04/16 06:33:38;;;;;;;5.03;2.20;;;;;;;13.21;100.00;99137.94;5486708;26;19998;-55
2024/04/16 06:36:06;;;;;;;4.70;1.75;;;;;;;13.24;100.00;99147.56;5486687;26;19998;-56
2024/04/16 06:38:36;;;;;;;6.53;1.80;;;;;;;12.91;100.00;99146.81;5487091;26;20008;-58
2024/04/16 06:41:04;;;;;;;6.63;2.45;;;;;;;12.97;100.00;99138.25;5486749;26;20009;-56
2024/04/16 06:43:34;;;;;;;3.90;1.70;;;;;;;12.78;100.00;99143.53;5486997;26;20009;-57
2024/04/16 06:46:04;;;;;;;3.42;1.40;;;;;;;12.68;100.00;99145.31;5486628;26;19997;-58
2024/04/16 06:48:35;;;;;;;4.47;1.55;;;;;;;12.87;100.00;99140.03;5486264;26;20465;-55
2024/04/16 06:51:02;;;;;;;5.20;1.70;;;;;;;12.89;100.00;99138.06;5486215;26;19998;-55
2024/04/16 06:53:33;;;;;;;4.95;1.63;;;;;;;12.75;100.00;99131.25;5485994;26;20051;-57
2024/04/16 06:56:02;;;;;;;7.53;1.80;;;;;;;13.09;100.00;99126.47;5485757;26;19994;-58
2024/04/16 06:58:32;;;;;;;3.97;1.70;;;;;;;12.82;100.00;99123.53;5485714;26;20471;-59
2024/04/16 07:01:03;;;;;;;4.13;1.80;;;;;;;12.95;100.00;99116.16;5485760;26;20035;-59
2024/04/16 07:03:33;;;;;;;3.35;1.48;;;;;;;12.65;100.00;99119.66;5486350;26;20344;-56
2024/04/16 07:06:03;;;;;;;3.17;1.30;;;;;;;12.57;100.00;99124.81;5485556;26;19995;-59
2024/04/16 07:08:31;;;;;;;5.55;1.60;;;;;;;12.85;100.00;99132.16;5485603;26;20009;-54
2024/04/16 07:11:01;;;;;;;4.47;1.50;;;;;;;12.69;100.00;99149.66;5486073;26;20062;-56
2024/04/16 07:13:29;;;;;;;3.40;1.17;;;;;;;12.51;100.00;99163.63;5504985;26;20012;-55
2024/04/16 07:15:59;;;;;;;4.05;1.17;;;;;;;12.45;100.00;99182.91;5522895;25;20009;-56
2024/04/16 07:18:27;;;;;;;4.75;1.48;;;;;;;12.55;100.00;99193.66;5522841;25;20006;-55
2024/04/16 07:21:00;;;;;;;7.07;2.80;;;;;;;12.14;100.00;99183.75;5522766;25;20074;-54
2024/04/16 07:23:28;;;;;;;4.60;1.52;;;;;;;12.09;100.00;99178.81;5522671;25;19989;-56
2024/04/16 07:25:58;;;;;;;2.55;1.23;;;;;;;12.03;100.00;99176.63;5522509;25;19997;-57
2024/04/16 07:28:29;;;;;;;3.90;1.50;;;;;;;12.02;100.00;99183.81;5522691;25;19998;-57
2024/04/16 07:30:59;;;;;;;7.28;2.42;;;;;;;11.97;100.00;99193.19;5522421;25;20065;-56
2024/04/16 07:33:39;;;;;;;5.38;1.50;;;;;;;11.65;100.00;99187.78;5522148;25;20954;-59
2024/04/16 07:36:13;;;;;;;2.78;1.30;;;;;;;11.33;100.00;99193.91;5522385;25;20439;-59
2024/04/16 07:38:44;;;;;;;3.35;1.42;;;;;;;11.80;100.00;99186.56;5522374;25;19997;-57
2024/04/16 07:41:12;;;;;;;3.40;1.20;;;;;;;11.69;100.00;99181.22;5524496;25;20093;-58
2024/04/16 07:43:42;;;;;;;5.57;1.55;;;;;;;11.82;100.00;99184.59;5530029;25;19997;-59
2024/04/16 07:46:10;;;;;;;6.63;1.35;;;;;;;11.61;100.00;99186.34;5529436;25;20001;-58
2024/04/16 07:48:43;;;;;;;6.30;1.60;;;;;;;11.63;100.00;99195.06;5529398;25;19998;-57
2024/04/16 07:51:13;;;;;;;3.72;1.42;;;;;;;11.71;100.00;99204.16;5529967;25;20014;-55
2024/04/16 07:53:44;;;;;;;9.07;1.95;;;;;;;11.78;100.00;99215.19;5529645;25;20005;-59
2024/04/16 07:56:12;;;;;;;6.22;1.50;;;;;;;11.87;100.00;99197.56;5529628;25;19995;-58
2024/04/16 07:58:45;;;;;;;5.25;1.67;;;;;;;11.69;100.00;99211.44;5529637;25;20009;-58
2024/04/16 08:01:16;;;;;;;4.20;1.33;;;;;;;11.57;100.00;99193.72;5529779;25;19997;-58
2024/04/16 08:03:47;;;;;;;7.28;1.65;;;;;;;11.82;100.00;99195.28;5530024;25;20419;-57
2024/04/16 08:06:20;;;;;;;6.15;1.92;;;;;;;12.03;100.00;99192.66;5529892;25;19997;-57
2024/04/16 08:08:50;;;;;;;7.78;2.25;;;;;;;12.04;100.00;99189.88;5529666;25;20561;-58
2024/04/16 08:11:20;;;;;;;4.47;1.67;;;;;;;12.49;100.00;99189.66;5528700;25;20509;-58
2024/04/16 08:13:50;;;;;;;5.65;1.60;;;;;;;11.95;100.00;99187.94;5528453;25;20442;-57
2024/04/16 08:16:20;;;;;;;5.18;2.03;;;;;;;12.04;100.00;99195.22;5524350;25;20017;-57
2024/04/16 08:18:48;;;;;;;2.80;1.30;;;;;;;12.11;100.00;99192.03;5509833;26;20066;-55
2024/04/16 08:21:22;;;;;;;5.15;1.27;;;;;;;12.49;100.00;99194.19;5528391;25;20097;-55
2024/04/16 08:23:51;;;;;;;1.58;0.90;;;;;;;12.29;100.00;99203.88;5528694;25;20004;-56
2024/04/16 08:26:21;;;;;;;5.13;1.90;;;;;;;12.46;100.00;99211.34;5528984;25;19997;-57
2024/04/16 08:28:49;;;;;;;10.55;5.20;;;;;;;12.60;100.00;99224.38;5528393;25;20012;-56
2024/04/16 08:31:19;;;;;;;6.95;3.42;;;;;;;12.83;100.00;99218.88;5528538;25;20005;-57
2024/04/16 08:33:46;;;;;;;4.88;1.48;;;;;;;12.63;100.00;99214.38;5528319;25;20008;-58
2024/04/16 08:36:16;;;;;;;4.47;1.35;;;;;;;12.45;100.00;99217.66;5528397;25;20454;-56
2024/04/16 08:38:46;;;;;;;2.88;1.05;;;;;;;12.27;100.00;99221.88;5528390;25;20009;-56
2024/04/16 08:41:16;;;;;;;3.72;0.80;;;;;;;12.10;100.00;99230.44;5528327;25;20005;-59
2024/04/16 08:43:44;;;;;;;2.55;0.80;;;;;;;12.15;100.00;99233.56;5528276;25;20407;-56
2024/04/16 08:46:17;;;;;;;1.80;0.70;;;;;;;11.98;100.00;99233.16;5528202;25;20026;-56
2024/04/16 08:48:46;;;;;;;2.35;0.80;;;;;;;11.61;100.00;99242.44;5528297;25;20021;-56
2024/04/16 08:51:18;;;;;;;4.03;0.77;;;;;;;11.46;100.00;99242.66;5528701;25;19997;-59
2024/04/16 08:53:49;;;;;;;3.27;1.10;;;;;;;11.18;100.00;99245.81;5523695;25;20450;-56
2024/04/16 08:56:20;;;;;;;3.88;1.00;;;;;;;11.55;100.00;99261.59;5523827;25;19993;-57
2024/04/16 08:58:48;;;;;;;3.67;0.98;;;;;;;11.42;100.00;99283.94;5525034;25;19997;-56
2024/04/16 09:01:19;;;;;;;3.22;0.80;;;;;;;11.25;98.25;99289.75;5524433;25;19997;-58
2024/04/16 09:03:49;;;;;;;1.30;0.70;;;;;;;11.01;94.84;99310.34;5524772;25;19997;-58
2024/04/16 09:06:21;;;;;;;2.35;1.27;;;;;;;10.91;99.59;99309.34;5523895;25;19998;-54
2024/04/16 09:08:53;;;;;;;5.28;1.90;;;;;;;10.76;98.51;99322.03;5524743;25;20065;-55
2024/04/16 09:11:40;;;;;;;5.22;1.52;;;;;;;10.98;97.55;99337.25;5524824;25;20003;-58
2024/04/16 09:14:09;;;;;;;2.45;0.90;;;;;;;10.78;94.32;99342.28;5524412;25;20077;-58
2024/04/16 09:16:40;;;;;;;4.43;0.90;;;;;;;10.76;96.56;99333.53;5524653;25;20005;-59
2024/04/16 09:19:09;;;;;;;3.20;0.77;;;;;;;10.57;95.56;99333.22;5524227;25;20007;-53
2024/04/16 09:21:40;;;;;;;1.55;0.70;;;;;;;10.70;94.92;99344.66;5524651;25;20359;-55
2024/04/16 09:24:11;;;;;;;2.42;0.88;;;;;;;10.44;98.18;99329.78;5524329;25;20005;-57
2024/04/16 09:26:41;;;;;;;1.85;1.00;;;;;;;10.65;99.57;99336.19;5524450;25;20008;-55
2024/04/16 09:29:09;;;;;;;3.08;0.80;;;;;;;10.78;98.92;99350.28;5524426;25;20020;-56
2024/04/16 09:31:39;;;;;;;4.55;0.68;;;;;;;10.91;98.43;99346.72;5524361;25;20047;-56
2024/04/16 09:34:08;;;;;;;3.65;1.10;;;;;;;11.07;98.72;99352.56;5523877;25;19994;-56
2024/04/16 09:36:49;;;;;;;1.35;0.57;;;;;;;10.91;96.20;99349.38;5523524;26;20005;-57
2024/04/16 09:39:21;;;;;;;1.65;0.77;;;;;;;10.86;93.58;99363.03;5524267;25;19994;-58
2024/04/16 09:41:53;;;;;;;0.85;0.70;;;;;;;10.77;93.77;99359.25;5524249;25;19994;-57
2024/04/16 09:44:20;;;;;;;2.88;0.75;;;;;;;11.03;90.70;99356.44;5524279;25;20015;-59
2024/04/16 09:46:51;;;;;;;1.52;0.80;;;;;;;10.92;92.27;99338.59;5523662;25;19997;-53
2024/04/16 09:49:23;;;;;;;2.33;0.90;;;;;;;11.03;92.92;99338.59;5524171;25;19998;-57
2024/04/16 09:52:03;;;;;;;2.40;0.90;;;;;;;10.61;89.32;99345.34;5485581;26;19998;-54
2024/04/16 09:54:35;;;;;;;1.98;0.70;;;;;;;10.56;87.85;99343.03;5498819;26;20013;-55
2024/04/16 09:57:07;;;;;;;2.08;0.68;;;;;;;10.69;88.83;99334.97;5493482;25;19998;-58
2024/04/16 09:59:37;;;;;;;2.28;0.98;;;;;;;10.98;91.14;99347.91;5487015;26;20487;-54
2024/04/16 10:02:10;;;;;;;7.68;3.13;;;;;;;10.49;91.16;99341.78;5487162;26;19998;-56
2024/04/16 10:04:40;;;;;;;10.48;4.65;;;;;;;10.65;91.40;99351.31;5486908;26;20009;-56
2024/04/16 10:07:11;;;;;;;4.03;1.10;;;;;;;10.70;90.08;99355.34;5487431;26;19998;-58
2024/04/16 10:09:42;;;;;;;2.80;0.90;;;;;;;10.90;90.08;99343.16;5486496;26;19998;-57
2024/04/16 10:12:13;;;;;;;3.22;1.23;;;;;;;10.86;89.60;99361.22;5487255;26;19994;-57
2024/04/16 10:14:42;;;;;;;8.18;3.00;;;;;;;10.86;90.67;99347.88;5486959;26;19994;-55
2024/04/16 10:17:14;;;;;;;6.53;2.70;;;;;;;10.95;88.65;99356.16;5487075;26;20063;-55
2024/04/16 10:19:42;;;;;;;9.70;3.83;;;;;;;11.22;87.11;99356.72;5486329;26;20109;-55
2024/04/16 10:22:16;;;;;;;5.60;1.90;;;;;;;10.68;87.43;99362.59;5486855;26;20005;-55
2024/04/16 10:24:56;;;;;;;14.13;6.22;;;;;;;11.02;87.07;99352.06;5486271;26;19994;-55
2024/04/16 10:27:27;;;;;;;20.25;8.52;;;;;;;11.27;88.54;99340.34;5486080;26;19998;-57
2024/04/16 10:30:05;;;;;;;19.17;8.02;;;;;;;11.06;86.99;99349.03;5485811;26;20447;-56
2024/04/16 10:32:36;;;;;;;24.30;9.32;;;;;;;11.24;88.21;99344.13;5487184;26;20495;-55
2024/04/16 10:35:07;;;;;;;11.55;5.10;;;;;;;11.48;86.44;99341.34;5486507;26;20008;-58
2024/04/16 10:37:41;;;;;;;7.15;2.95;;;;;;;11.17;87.61;99342.88;5486649;26;20451;-54
2024/04/16 10:40:22;;;;;;;6.25;2.80;;;;;;;11.12;86.81;99345.06;5486283;26;20129;-58
2024/04/16 10:42:55;;;;;;;5.05;1.88;;;;;;;10.71;86.19;99341.06;5486176;26;20009;-54
2024/04/16 10:45:22;;;;;;;9.27;3.25;;;;;;;10.99;87.85;99339.78;5486137;26;20010;-55
2024/04/16 10:47:53;;;;;;;14.80;6.22;;;;;;;11.50;87.87;99336.75;5486129;26;20397;-55
2024/04/16 10:50:21;;;;;;;11.32;4.10;;;;;;;10.83;85.70;99347.28;5486255;26;20066;-55
2024/04/16 10:52:52;;;;;;;8.55;2.00;;;;;;;11.03;83.04;99340.44;5486404;26;19998;-54
2024/04/16 10:55:24;;;;;;;3.78;1.85;;;;;;;10.49;82.41;99339.13;5485708;26;19998;-55
2024/04/16 10:57:55;;;;;;;5.57;2.10;;;;;;;10.12;87.89;99340.94;5485925;26;20006;-53
2024/04/16 11:00:22;;;;;;;12.10;2.47;;;;;;;10.59;87.61;99341.94;5485472;26;20008;-60
2024/04/16 11:02:56;;;;;;;19.02;3.75;;;;;;;10.79;88.02;99343.97;5485356;26;20036;-55
2024/04/16 11:05:25;;;;;;;9.95;3.70;;;;;;;11.32;88.00;99341.72;5485818;26;20029;-54
2024/04/16 11:07:55;;;;;;;10.88;4.53;;;;;;;11.45;88.30;99339.75;5486115;26;20483;-57
2024/04/16 11:10:26;;;;;;;14.10;3.92;;;;;;;11.17;87.19;99337.53;5485375;26;20009;-55
2024/04/16 11:12:56;;;;;;;3.22;1.10;;;;;;;10.57;82.43;99338.56;5485851;26;20008;-57
2024/04/16 11:15:24;;;;;;;10.43;1.95;;;;;;;10.45;87.04;99337.66;5485435;26;20005;-57
2024/04/16 11:17:54;;;;;;;11.02;2.78;;;;;;;10.91;87.41;99347.56;5485758;26;20463;-54
2024/04/16 11:20:22;;;;;;;5.15;1.20;;;;;;;10.97;90.32;99347.06;5485259;26;20069;-54
2024/04/16 11:22:53;;;;;;;6.47;1.48;;;;;;;11.29;86.43;99355.31;5485876;26;20081;-56
2024/04/16 11:25:21;;;;;;;5.03;1.45;;;;;;;11.01;85.34;99353.91;5485913;26;20008;-58
2024/04/16 11:27:54;;;;;;;4.38;1.40;;;;;;;11.07;83.56;99350.75;5485512;26;20009;-56
2024/04/16 11:30:22;;;;;;;4.07;1.77;;;;;;;11.09;84.29;99363.97;5485650;26;20002;-64
2024/04/16 11:32:53;;;;;;;25.70;11.30;;;;;;;11.39;86.41;99379.47;5486014;26;20005;-57
2024/04/16 11:35:21;;;;;;;18.20;7.70;;;;;;;11.49;85.98;99382.28;5485211;26;20005;-59
2024/04/16 11:37:51;;;;;;;49.17;23.67;;;;;;;11.71;85.77;99369.78;5485630;26;19997;-59
2024/04/16 11:40:19;;;;;;;9.90;4.60;;;;;;;11.65;86.15;99380.94;5485338;26;20006;-57